Udo Maru — JM6522 — position and weather

sailwx.info

Track history (hours):
 
Tides and Currents Weather Stations Pressure Air Temp Water Temp Dewpoint Dewpoint Depression Visibility Wind Speed Wind Dir Waves Ship Positions

Udo Maru

Last reported at 2016-Dec-02 12:12 UTC. Time now 2016-Dec-03 04:42 UTC.
Position N 34°37' E 134°55'.

Length 87 m; draft 4.9 m.

Type: Cargo ship. MMSI: 431600499.

Date/timePositionNaut miles runAvg speedWind from/ knotsBaromVisibWave heightAir tempDewpointWater temp
2016-Dec-02 12:12N 34°37' E 134°55'711.6
2016-Dec-02 11:33N 34°36' E 135°03'1110.6
2016-Dec-02 10:33N 34°26' E 135°01'10 9.9
2016-Dec-02 09:31N 34°15' E 135°01'5 5.0
2016-Dec-02 08:33N 34°15' E 135°07'0 0.0
2016-Dec-02 07:34N 34°15' E 135°07'0 0.0
2016-Dec-02 06:31N 34°15' E 135°07'0 0.1
2016-Dec-02 05:34N 34°15' E 135°07'0 0.0
2016-Dec-02 04:34N 34°15' E 135°07'0 0.0
2016-Dec-02 03:31N 34°15' E 135°07'0 0.0
2016-Dec-02 02:31N 34°15' E 135°07'0 0.0
2016-Dec-02 01:31N 34°15' E 135°07'0 0.0
2016-Dec-02 00:34N 34°15' E 135°07'0 0.1
2016-Dec-01 23:33N 34°15' E 135°07'5 4.5
2016-Dec-01 22:33N 34°18' E 135°04'1212.0
2016-Dec-01 21:33N 34°30' E 135°04'9 8.9
2016-Dec-01 20:33N 34°36' E 134°56'1 0.0
2016-Nov-30 19:28N 34°37' E 134°56'7 8.0
2016-Nov-30 18:33N 34°36' E 135°04'9 9.2
2016-Nov-30 17:33N 34°26' E 135°04'11 9.8
2016-Nov-30 16:29N 34°16' E 135°03'4 4.1
2016-Nov-30 15:33N 34°15' E 135°07'0 0.0
2016-Nov-30 14:33N 34°15' E 135°07'0 0.0
2016-Nov-30 13:33N 34°15' E 135°07'0 0.0
2016-Nov-30 12:33N 34°15' E 135°07'0 0.0
2016-Nov-30 11:33N 34°15' E 135°07'0 0.0
2016-Nov-30 10:33N 34°15' E 135°07'0 0.0
2016-Nov-30 09:33N 34°15' E 135°07'0 0.0
2016-Nov-30 08:33N 34°15' E 135°07'0 0.0
2016-Nov-30 07:33N 34°15' E 135°07'0 0.0
2016-Nov-30 06:33N 34°15' E 135°07'0 0.0
2016-Nov-30 05:33N 34°15' E 135°07'0 0.5
2016-Nov-30 04:33N 34°14' E 135°07'0 0.2
2016-Nov-30 03:32N 34°14' E 135°06'0 0.0
2016-Nov-30 02:32N 34°14' E 135°06'1 1.2
2016-Nov-30 01:33N 34°14' E 135°05'1211.5
2016-Nov-30 00:33N 34°03' E 135°02'  
2016-Nov-27 00:16N 34°03' E 134°60'811.1
2016-Nov-26 23:33N 34°11' E 134°59'10 9.5
2016-Nov-26 22:33N 34°20' E 134°59'1010.2
2016-Nov-26 21:33N 34°30' E 135°01'7 6.9
2016-Nov-26 20:32N 34°37' E 135°00'  
Track history (hours):
 
Tides and Currents Weather Stations Pressure Air Temp Water Temp Dewpoint Dewpoint Depression Visibility Wind Speed Wind Dir Waves Ship Positions

Udo Maru

Last reported at 2016-Dec-02 12:12 UTC. Time now 2016-Dec-03 04:42 UTC.
Position N 34°37' E 134°55'.

Length 87 m; draft 4.9 m.

Type: Cargo ship. MMSI: 431600499.

Date/timePositionNaut miles runAvg speedWind from/ knotsBaromVisibWave heightAir tempDewpointWater temp
2016-Dec-02 12:12N 34°37' E 134°55'711.6
2016-Dec-02 11:33N 34°36' E 135°03'1110.6
2016-Dec-02 10:33N 34°26' E 135°01'10 9.9
2016-Dec-02 09:31N 34°15' E 135°01'5 5.0
2016-Dec-02 08:33N 34°15' E 135°07'0 0.0
2016-Dec-02 07:34N 34°15' E 135°07'0 0.0
2016-Dec-02 06:31N 34°15' E 135°07'0 0.1
2016-Dec-02 05:34N 34°15' E 135°07'0 0.0
2016-Dec-02 04:34N 34°15' E 135°07'0 0.0
2016-Dec-02 03:31N 34°15' E 135°07'0 0.0
2016-Dec-02 02:31N 34°15' E 135°07'0 0.0
2016-Dec-02 01:31N 34°15' E 135°07'0 0.0
2016-Dec-02 00:34N 34°15' E 135°07'0 0.1
2016-Dec-01 23:33N 34°15' E 135°07'5 4.5
2016-Dec-01 22:33N 34°18' E 135°04'1212.0
2016-Dec-01 21:33N 34°30' E 135°04'9 8.9
2016-Dec-01 20:33N 34°36' E 134°56'1 0.0
2016-Nov-30 19:28N 34°37' E 134°56'7 8.0
2016-Nov-30 18:33N 34°36' E 135°04'9 9.2
2016-Nov-30 17:33N 34°26' E 135°04'11 9.8
2016-Nov-30 16:29N 34°16' E 135°03'4 4.1
2016-Nov-30 15:33N 34°15' E 135°07'0 0.0
2016-Nov-30 14:33N 34°15' E 135°07'0 0.0
2016-Nov-30 13:33N 34°15' E 135°07'0 0.0
2016-Nov-30 12:33N 34°15' E 135°07'0 0.0
2016-Nov-30 11:33N 34°15' E 135°07'0 0.0
2016-Nov-30 10:33N 34°15' E 135°07'0 0.0
2016-Nov-30 09:33N 34°15' E 135°07'0 0.0
2016-Nov-30 08:33N 34°15' E 135°07'0 0.0
2016-Nov-30 07:33N 34°15' E 135°07'0 0.0
2016-Nov-30 06:33N 34°15' E 135°07'0 0.0
2016-Nov-30 05:33N 34°15' E 135°07'0 0.5
2016-Nov-30 04:33N 34°14' E 135°07'0 0.2
2016-Nov-30 03:32N 34°14' E 135°06'0 0.0
2016-Nov-30 02:32N 34°14' E 135°06'1 1.2
2016-Nov-30 01:33N 34°14' E 135°05'1211.5
2016-Nov-30 00:33N 34°03' E 135°02'  
2016-Nov-27 00:16N 34°03' E 134°60'811.1
2016-Nov-26 23:33N 34°11' E 134°59'10 9.5
2016-Nov-26 22:33N 34°20' E 134°59'1010.2
2016-Nov-26 21:33N 34°30' E 135°01'7 6.9
2016-Nov-26 20:32N 34°37' E 135°00'  

Dump ship's entire track history